createdAt,value
2023-01-06T00:01:13.052Z,0.80
2023-01-06T00:03:14.797Z,0.80
2023-01-06T00:05:16.942Z,0.97
2023-01-06T00:07:18.737Z,0.80
2023-01-06T00:09:20.527Z,0.90
2023-01-06T00:11:22.711Z,0.83
2023-01-06T00:13:24.495Z,0.90
2023-01-06T00:15:26.367Z,0.90
2023-01-06T00:17:28.217Z,1.00
2023-01-06T00:19:30.109Z,1.40
2023-01-06T00:21:32.256Z,1.10
2023-01-06T00:23:35.525Z,0.90
2023-01-06T00:25:37.339Z,0.90
2023-01-06T00:27:40.100Z,1.00
2023-01-06T00:29:42.101Z,0.90
2023-01-06T00:31:43.851Z,0.80
2023-01-06T00:33:45.614Z,1.10
2023-01-06T00:35:48.828Z,0.83
2023-01-06T00:37:50.712Z,0.90
2023-01-06T00:39:52.481Z,0.97
2023-01-06T00:42:03.449Z,1.00
2023-01-06T00:44:05.745Z,1.00
2023-01-06T00:46:07.757Z,1.13
2023-01-06T00:48:09.831Z,0.90
2023-01-06T00:50:11.888Z,1.00
2023-01-06T00:52:14.927Z,1.13
2023-01-06T00:54:16.906Z,1.00
2023-01-06T00:56:18.884Z,1.13
2023-01-06T00:58:20.602Z,1.30
2023-01-06T01:00:22.743Z,1.30
2023-01-06T01:02:24.814Z,1.20
2023-01-06T01:04:27.632Z,1.00
2023-01-06T01:06:29.479Z,1.20
2023-01-06T01:08:31.496Z,1.10
2023-01-06T01:10:33.343Z,1.17
2023-01-06T01:12:35.124Z,1.30
2023-01-06T01:14:50.819Z,1.40
2023-01-06T01:16:52.689Z,1.30
2023-01-06T01:18:55.794Z,1.30
2023-01-06T01:20:57.539Z,1.27
2023-01-06T01:22:59.211Z,1.20
2023-01-06T01:25:01.254Z,1.10
2023-01-06T01:27:04.359Z,1.43
2023-01-06T01:29:06.443Z,1.33
2023-01-06T01:31:08.480Z,1.00
2023-01-06T01:33:10.269Z,1.40
2023-01-06T01:35:11.978Z,1.30
2023-01-06T01:37:16.150Z,1.27
2023-01-06T01:39:20.826Z,1.20
2023-01-06T01:41:23.652Z,1.30
2023-01-06T01:43:25.601Z,1.37
2023-01-06T01:45:29.663Z,1.20
2023-01-06T01:48:01.056Z,1.10
2023-01-06T01:50:27.244Z,1.20
2023-01-06T01:52:29.751Z,1.40
2023-01-06T01:54:33.360Z,1.20
2023-01-06T01:56:37.704Z,1.37
2023-01-06T01:58:55.215Z,1.10
2023-01-06T02:00:57.002Z,1.30
2023-01-06T02:02:59.535Z,1.20
2023-01-06T02:05:04.309Z,1.20
2023-01-06T02:07:06.752Z,1.20
2023-01-06T02:09:20.594Z,1.17
2023-01-06T02:11:23.687Z,1.30
2023-01-06T02:13:26.058Z,1.37
2023-01-06T02:16:33.811Z,1.20
2023-01-06T02:18:50.764Z,1.40
2023-01-06T02:21:11.179Z,1.53
2023-01-06T02:23:30.757Z,1.30
2023-01-06T02:25:44.873Z,1.60
2023-01-06T02:28:07.981Z,1.27
2023-01-06T02:30:18.747Z,1.50
2023-01-06T02:32:42.308Z,1.43
2023-01-06T02:35:01.774Z,1.30
2023-01-06T02:37:24.971Z,1.37
2023-01-06T02:39:53.138Z,1.40
2023-01-06T02:42:09.373Z,1.43
2023-01-06T02:44:23.238Z,1.40
2023-01-06T02:47:05.387Z,1.20
2023-01-06T02:49:13.598Z,1.40
2023-01-06T02:51:23.316Z,1.53
2023-01-06T02:53:43.409Z,1.47
2023-01-06T02:55:48.365Z,1.60
2023-01-06T02:58:14.171Z,1.50
2023-01-06T03:00:33.755Z,1.37
2023-01-06T03:02:39.444Z,1.60
2023-01-06T03:04:45.449Z,1.43
2023-01-06T03:06:51.580Z,1.60
2023-01-06T03:08:55.482Z,1.57
2023-01-06T03:11:00.642Z,1.63
2023-01-06T03:13:17.454Z,1.77
2023-01-06T03:15:19.901Z,2.27
2023-01-06T03:17:23.932Z,1.53
2023-01-06T03:19:26.060Z,1.60
2023-01-06T03:21:32.676Z,1.70
2023-01-06T03:23:35.194Z,1.70
2023-01-06T03:25:40.926Z,1.87
2023-01-06T03:27:43.863Z,1.70
2023-01-06T03:29:45.994Z,1.60
2023-01-06T03:31:58.515Z,1.50
2023-01-06T03:34:07.659Z,1.57
2023-01-06T03:36:36.440Z,1.90
2023-01-06T03:38:59.772Z,1.73
2023-01-06T03:41:58.329Z,1.53
2023-01-06T03:44:17.725Z,1.70
2023-01-06T03:46:29.122Z,1.70
2023-01-06T03:48:39.731Z,1.80
2023-01-06T03:51:17.424Z,1.80
2023-01-06T03:53:26.682Z,1.70
2023-01-06T03:55:33.353Z,1.63
2023-01-06T03:57:38.983Z,2.20
2023-01-06T03:59:49.678Z,1.43
2023-01-06T04:01:51.780Z,1.80
2023-01-06T04:03:56.528Z,1.80
2023-01-06T04:06:02.296Z,2.10
2023-01-06T04:08:04.548Z,1.77
2023-01-06T04:10:07.841Z,1.60
2023-01-06T04:12:28.232Z,1.53
2023-01-06T04:14:30.093Z,1.80
2023-01-06T04:16:33.718Z,1.90
2023-01-06T04:18:35.643Z,1.63
2023-01-06T04:20:37.391Z,1.70
2023-01-06T04:22:52.586Z,1.60
2023-01-06T04:24:54.475Z,1.67
2023-01-06T04:26:57.076Z,1.63
2023-01-06T04:28:58.966Z,1.90
2023-01-06T04:31:02.212Z,1.70
2023-01-06T04:33:06.915Z,1.50
2023-01-06T04:35:10.928Z,1.50
2023-01-06T04:37:14.179Z,1.63
2023-01-06T04:39:15.957Z,2.17
2023-01-06T04:41:18.201Z,1.80
2023-01-06T04:43:20.057Z,1.60
2023-01-06T04:45:22.936Z,1.70
2023-01-06T04:47:24.807Z,1.53
2023-01-06T04:49:27.672Z,1.60
2023-01-06T04:51:29.563Z,1.63
2023-01-06T04:53:35.133Z,2.20
2023-01-06T04:55:40.935Z,1.43
2023-01-06T04:57:43.529Z,1.53
2023-01-06T04:59:46.963Z,1.30
2023-01-06T05:01:48.755Z,1.60
2023-01-06T05:03:50.589Z,1.70
2023-01-06T05:05:52.448Z,1.50
2023-01-06T05:07:54.968Z,1.60
2023-01-06T05:09:57.375Z,1.63
2023-01-06T05:11:59.116Z,1.40
2023-01-06T05:14:00.821Z,1.40
2023-01-06T05:16:08.688Z,1.90
2023-01-06T05:18:11.226Z,1.50
2023-01-06T05:20:13.048Z,1.50
2023-01-06T05:22:15.147Z,1.50
2023-01-06T05:24:16.914Z,1.40
2023-01-06T05:26:21.670Z,1.47
2023-01-06T05:28:23.498Z,1.63
2023-01-06T05:30:25.224Z,1.37
2023-01-06T05:32:26.936Z,1.60
2023-01-06T05:34:28.892Z,1.43
2023-01-06T05:36:30.892Z,1.40
2023-01-06T05:38:34.326Z,1.23
2023-01-06T05:40:36.433Z,1.40
2023-01-06T05:42:38.207Z,1.50
2023-01-06T05:44:39.981Z,1.50
2023-01-06T05:46:41.714Z,1.60
2023-01-06T05:48:43.730Z,1.40
2023-01-06T05:50:45.580Z,1.30
2023-01-06T05:52:47.341Z,1.53
2023-01-06T05:54:49.070Z,1.60
2023-01-06T05:56:50.949Z,1.27
2023-01-06T05:58:53.961Z,1.57
2023-01-06T06:00:55.950Z,1.47
2023-01-06T06:02:57.827Z,1.60
2023-01-06T06:04:59.754Z,1.90
2023-01-06T06:07:01.665Z,1.40
2023-01-06T06:09:05.097Z,1.50
2023-01-06T06:11:09.280Z,1.40
2023-01-06T06:13:11.254Z,1.47
2023-01-06T06:15:13.190Z,1.37
2023-01-06T06:17:14.949Z,1.90
2023-01-06T06:19:16.644Z,1.60
2023-01-06T06:21:21.263Z,1.40
2023-01-06T06:23:22.947Z,1.30
2023-01-06T06:25:24.675Z,1.10
2023-01-06T06:27:27.483Z,1.40
2023-01-06T06:29:29.261Z,1.43
2023-01-06T06:31:31.093Z,1.50
2023-01-06T06:33:33.730Z,1.63
2023-01-06T06:35:35.547Z,1.80
2023-01-06T06:37:37.257Z,1.50
2023-01-06T06:39:38.986Z,1.20
2023-01-06T06:41:41.116Z,1.40
2023-01-06T06:43:43.144Z,1.70
2023-01-06T06:45:45.720Z,1.47
2023-01-06T06:47:47.659Z,1.50
2023-01-06T06:49:51.120Z,1.50
2023-01-06T06:51:55.342Z,1.30
2023-01-06T06:53:57.280Z,1.40
2023-01-06T06:55:59.105Z,1.43
2023-01-06T06:58:00.944Z,1.23
2023-01-06T07:00:03.914Z,1.37
2023-01-06T07:02:06.341Z,1.40
2023-01-06T07:04:08.874Z,1.30
2023-01-06T07:06:13.886Z,1.30
2023-01-06T07:08:15.691Z,1.70
2023-01-06T07:10:17.423Z,1.40
2023-01-06T07:12:19.127Z,1.40
2023-01-06T07:14:20.848Z,1.40
2023-01-06T07:16:25.316Z,1.63
2023-01-06T07:18:27.304Z,1.60
2023-01-06T07:20:30.812Z,1.40
2023-01-06T07:22:32.536Z,1.50
2023-01-06T07:24:34.439Z,1.50
2023-01-06T07:26:36.388Z,1.50
2023-01-06T07:28:38.340Z,1.60
2023-01-06T07:30:40.057Z,1.60
2023-01-06T07:32:41.928Z,1.43
2023-01-06T07:34:43.605Z,1.70
2023-01-06T07:36:45.317Z,1.53
2023-01-06T07:38:48.034Z,1.40
2023-01-06T07:40:50.209Z,1.50
2023-01-06T07:42:52.073Z,1.50
2023-01-06T07:44:53.823Z,1.50
2023-01-06T07:46:55.600Z,1.70
2023-01-06T07:48:57.467Z,1.40
2023-01-06T07:50:59.286Z,1.70
2023-01-06T07:53:02.405Z,1.50
2023-01-06T07:55:04.492Z,1.50
2023-01-06T07:57:06.235Z,1.50
2023-01-06T07:59:08.100Z,1.50
2023-01-06T08:01:14.892Z,1.60
2023-01-06T08:03:16.750Z,1.47
2023-01-06T08:05:18.555Z,1.50
2023-01-06T08:07:20.343Z,1.60
2023-01-06T08:09:22.143Z,1.60
2023-01-06T08:11:23.882Z,1.43
2023-01-06T08:13:25.600Z,1.67
2023-01-06T08:15:27.332Z,1.70
2023-01-06T08:17:29.019Z,1.50
2023-01-06T08:19:30.845Z,1.60
2023-01-06T08:21:32.703Z,1.70
2023-01-06T08:23:36.047Z,1.80
2023-01-06T08:25:37.759Z,1.40
2023-01-06T08:27:39.610Z,1.60
2023-01-06T08:29:41.438Z,1.60
2023-01-06T08:31:43.268Z,2.90
2023-01-06T08:33:45.714Z,2.20
2023-01-06T08:35:47.690Z,2.10
2023-01-06T08:37:49.482Z,1.90
2023-01-06T08:39:51.204Z,1.57
2023-01-06T08:41:54.387Z,1.40
2023-01-06T08:43:56.109Z,1.50
2023-01-06T08:46:05.701Z,1.50
2023-01-06T08:48:07.713Z,1.30
2023-01-06T08:50:09.724Z,1.77
2023-01-06T08:52:14.289Z,1.40
2023-01-06T08:54:16.130Z,1.50
2023-01-06T08:56:20.676Z,1.60
2023-01-06T08:58:22.669Z,1.40
2023-01-06T09:00:24.761Z,1.50
2023-01-06T09:02:29.113Z,1.83
2023-01-06T09:04:30.969Z,1.50
2023-01-06T09:06:33.057Z,1.50
2023-01-06T09:08:34.814Z,1.60
2023-01-06T09:10:39.671Z,1.53
2023-01-06T09:12:42.160Z,1.50
2023-01-06T09:14:43.958Z,1.50
2023-01-06T09:16:47.751Z,1.70
2023-01-06T09:18:50.354Z,1.60
2023-01-06T09:20:52.134Z,1.67
2023-01-06T09:22:53.901Z,1.80
2023-01-06T09:24:55.637Z,1.60
2023-01-06T09:26:57.370Z,1.57
2023-01-06T09:28:59.225Z,1.87
2023-01-06T09:31:01.374Z,1.93
2023-01-06T09:33:03.210Z,1.50
2023-01-06T09:35:05.439Z,1.50
2023-01-06T09:37:07.372Z,1.40
2023-01-06T09:39:09.427Z,1.70
2023-01-06T09:41:40.196Z,1.90
2023-01-06T09:44:12.305Z,1.50
2023-01-06T09:46:18.980Z,1.53
2023-01-06T09:48:27.409Z,1.43
2023-01-06T09:50:40.715Z,1.33
2023-01-06T09:52:52.923Z,1.47
2023-01-06T09:55:14.082Z,1.40
2023-01-06T09:57:30.852Z,1.50
2023-01-06T09:59:46.512Z,1.37
2023-01-06T10:01:50.046Z,1.43
2023-01-06T10:03:52.134Z,1.33
2023-01-06T10:06:27.392Z,1.50
2023-01-06T10:08:40.952Z,1.47
2023-01-06T10:11:22.391Z,1.30
2023-01-06T10:13:31.721Z,1.40
2023-01-06T10:15:42.648Z,1.30
2023-01-06T10:17:57.638Z,1.53
2023-01-06T10:20:10.676Z,1.20
2023-01-06T10:22:49.885Z,1.50
2023-01-06T10:25:02.998Z,1.50
2023-01-06T10:27:40.423Z,1.43
2023-01-06T10:29:43.524Z,1.30
2023-01-06T10:31:47.643Z,1.97
2023-01-06T10:33:54.645Z,1.50
2023-01-06T10:35:57.927Z,1.40
2023-01-06T10:38:05.965Z,1.60
2023-01-06T10:40:22.181Z,1.40
2023-01-06T10:42:58.414Z,1.60
2023-01-06T10:45:00.269Z,1.30
2023-01-06T10:47:02.010Z,1.30
2023-01-06T10:49:07.791Z,1.50
2023-01-06T10:51:33.091Z,1.57
2023-01-06T10:53:38.408Z,1.40
2023-01-06T10:55:44.267Z,1.40
2023-01-06T10:57:47.524Z,1.40
2023-01-06T11:00:12.334Z,1.60
2023-01-06T11:02:23.679Z,1.50
2023-01-06T11:04:28.192Z,1.60
2023-01-06T11:06:31.379Z,1.60
2023-01-06T11:08:34.525Z,1.57
2023-01-06T11:10:44.529Z,1.60
2023-01-06T11:12:46.700Z,1.50
2023-01-06T11:15:03.823Z,1.80
2023-01-06T11:17:13.228Z,2.80
2023-01-06T11:19:31.637Z,1.90
2023-01-06T11:21:41.542Z,1.80
2023-01-06T11:23:46.616Z,1.50
2023-01-06T11:26:06.750Z,1.43
2023-01-06T11:28:19.966Z,1.40
2023-01-06T11:30:27.266Z,1.60
2023-01-06T11:32:30.002Z,1.47
2023-01-06T11:34:34.349Z,1.37
2023-01-06T11:36:45.676Z,1.40
2023-01-06T11:38:52.189Z,1.30
2023-01-06T11:40:54.316Z,1.60
2023-01-06T11:42:59.636Z,1.60
2023-01-06T11:45:01.511Z,1.40
2023-01-06T11:47:20.339Z,1.60
2023-01-06T11:49:26.125Z,1.40
2023-01-06T11:51:52.220Z,1.40
2023-01-06T11:53:57.884Z,1.37
2023-01-06T11:56:17.015Z,1.40
2023-01-06T11:58:27.460Z,1.40
2023-01-06T12:00:52.823Z,1.50
2023-01-06T12:03:03.337Z,1.60
2023-01-06T12:05:16.725Z,1.73
2023-01-06T12:07:38.519Z,1.60
2023-01-06T12:09:44.572Z,1.50
2023-01-06T12:11:57.822Z,1.70
2023-01-06T12:14:27.464Z,1.37
2023-01-06T12:16:38.175Z,1.50
2023-01-06T12:18:42.633Z,1.60
2023-01-06T12:20:49.679Z,1.20
2023-01-06T12:22:57.611Z,1.40
2023-01-06T12:25:01.665Z,1.20
2023-01-06T12:27:05.872Z,1.30
2023-01-06T12:29:09.238Z,1.40
2023-01-06T12:31:20.461Z,1.50
2023-01-06T12:33:34.261Z,1.30
2023-01-06T12:35:40.016Z,1.30
2023-01-06T12:37:48.553Z,1.20
2023-01-06T12:39:59.788Z,2.03
2023-01-06T12:42:23.791Z,1.40
2023-01-06T12:44:44.648Z,1.63
2023-01-06T12:47:01.640Z,1.40
2023-01-06T12:49:08.618Z,1.30
2023-01-06T12:51:45.045Z,1.50
2023-01-06T12:54:00.134Z,1.53
2023-01-06T12:56:14.728Z,1.50
2023-01-06T12:58:21.630Z,1.43
2023-01-06T13:00:38.360Z,1.43
2023-01-06T13:02:55.782Z,1.40
2023-01-06T13:05:16.857Z,1.50
2023-01-06T13:07:51.202Z,1.60
2023-01-06T13:10:10.000Z,1.37
2023-01-06T13:12:34.976Z,1.30
2023-01-06T13:14:55.911Z,1.50
2023-01-06T13:17:08.179Z,1.50
2023-01-06T13:19:37.941Z,1.57
2023-01-06T13:21:40.819Z,1.30
2023-01-06T13:24:16.375Z,1.20
2023-01-06T13:26:24.305Z,1.43
2023-01-06T13:29:05.043Z,1.40
2023-01-06T13:31:32.212Z,1.20
2023-01-06T13:34:02.320Z,1.40
2023-01-06T13:36:19.741Z,1.27
2023-01-06T13:38:31.499Z,1.30
2023-01-06T13:40:37.985Z,1.20
2023-01-06T13:42:39.841Z,1.40
2023-01-06T13:44:44.132Z,1.50
2023-01-06T13:46:48.893Z,1.77
2023-01-06T13:48:54.694Z,1.40
2023-01-06T13:50:58.473Z,2.10
2023-01-06T13:53:01.147Z,1.90
2023-01-06T13:55:29.004Z,1.40
2023-01-06T13:57:34.286Z,1.43
2023-01-06T14:00:08.738Z,1.20
2023-01-06T14:02:34.481Z,1.37
2023-01-06T14:04:41.183Z,1.50
2023-01-06T14:06:47.616Z,1.40
2023-01-06T14:08:57.104Z,1.40
2023-01-06T14:11:39.983Z,1.63
2023-01-06T14:13:48.978Z,1.80
2023-01-06T14:15:58.096Z,1.30
2023-01-06T14:18:02.906Z,1.20
2023-01-06T14:20:05.577Z,1.40
2023-01-06T14:22:15.150Z,1.30
2023-01-06T14:24:34.643Z,1.20
2023-01-06T14:27:00.012Z,1.40
2023-01-06T14:29:41.011Z,1.33
2023-01-06T14:31:43.715Z,1.33
2023-01-06T14:33:46.673Z,1.10
2023-01-06T14:35:52.822Z,1.33
2023-01-06T14:38:22.456Z,1.30
2023-01-06T14:40:39.472Z,1.30
2023-01-06T14:42:45.906Z,1.30
2023-01-06T14:45:17.676Z,1.27
2023-01-06T14:47:42.827Z,1.20
2023-01-06T14:49:59.627Z,1.20
2023-01-06T14:52:09.560Z,1.17
2023-01-06T14:54:38.022Z,1.00
2023-01-06T15:00:04.119Z,1.40
2023-01-06T15:02:17.107Z,1.80
2023-01-06T15:04:31.160Z,1.60
2023-01-06T15:06:36.156Z,2.00
2023-01-06T15:08:38.543Z,1.77
2023-01-06T15:10:49.082Z,1.50
2023-01-06T15:12:56.634Z,1.30
2023-01-06T15:15:25.708Z,1.47
2023-01-06T15:17:28.224Z,1.23
2023-01-06T15:19:31.057Z,1.80
2023-01-06T15:21:40.676Z,1.90
2023-01-06T15:23:45.485Z,1.60
2023-01-06T15:25:54.369Z,1.40
2023-01-06T15:27:57.369Z,1.50
2023-01-06T15:29:59.246Z,1.80
2023-01-06T15:32:02.053Z,1.30
2023-01-06T15:34:33.394Z,1.70
2023-01-06T15:36:37.429Z,1.60
2023-01-06T15:38:41.936Z,1.63
2023-01-06T15:40:48.277Z,1.30
2023-01-06T15:42:52.747Z,1.47
2023-01-06T15:44:57.817Z,1.50
2023-01-06T15:47:12.667Z,1.60
2023-01-06T15:49:37.483Z,1.50
2023-01-06T15:51:42.128Z,1.60
2023-01-06T15:53:45.338Z,1.70
2023-01-06T15:55:51.736Z,1.40
2023-01-06T15:57:59.700Z,1.40
2023-01-06T16:00:08.294Z,1.60
2023-01-06T16:02:23.128Z,1.53
2023-01-06T16:04:25.316Z,1.60
2023-01-06T16:06:32.958Z,1.40
2023-01-06T16:08:34.938Z,1.33
2023-01-06T16:10:39.041Z,1.30
2023-01-06T16:12:40.992Z,1.60
2023-01-06T16:14:46.182Z,1.37
2023-01-06T16:16:48.746Z,3.43
2023-01-06T16:18:54.757Z,2.30
2023-01-06T16:20:57.441Z,1.70
2023-01-06T16:23:01.812Z,1.60
2023-01-06T16:25:22.003Z,1.70
2023-01-06T16:27:27.867Z,1.60
2023-01-06T16:29:38.344Z,1.60
2023-01-06T16:31:49.207Z,1.70
2023-01-06T16:33:51.089Z,1.73
2023-01-06T16:35:52.890Z,1.60
2023-01-06T16:37:55.149Z,1.60
2023-01-06T16:40:00.694Z,2.00
2023-01-06T16:42:33.859Z,1.47
2023-01-06T16:44:36.103Z,2.40
2023-01-06T16:46:38.419Z,2.23
2023-01-06T16:48:40.268Z,1.90
2023-01-06T16:50:45.607Z,2.20
2023-01-06T16:52:51.804Z,2.43
2023-01-06T16:54:55.155Z,2.00
2023-01-06T16:56:57.192Z,2.13
2023-01-06T16:58:59.089Z,2.20
2023-01-06T17:01:09.444Z,2.23
2023-01-06T17:03:14.689Z,1.80
2023-01-06T17:05:29.664Z,2.27
2023-01-06T17:07:31.792Z,2.20
2023-01-06T17:09:35.352Z,2.67
2023-01-06T17:11:38.210Z,2.50
2023-01-06T17:13:45.892Z,2.30
2023-01-06T17:15:54.838Z,2.60
2023-01-06T17:17:56.687Z,2.23
2023-01-06T17:19:58.786Z,2.43
2023-01-06T17:22:30.295Z,2.20
2023-01-06T17:24:32.428Z,2.17
2023-01-06T17:26:34.731Z,2.30
2023-01-06T17:28:38.198Z,2.40
2023-01-06T17:30:40.125Z,2.57
2023-01-06T17:32:43.592Z,2.60
2023-01-06T17:34:45.458Z,2.60
2023-01-06T17:36:50.393Z,2.40
2023-01-06T17:38:53.746Z,2.40
2023-01-06T17:40:58.130Z,2.60
2023-01-06T17:43:09.898Z,2.80
2023-01-06T17:45:22.532Z,2.50
2023-01-06T17:47:24.310Z,2.60
2023-01-06T17:49:34.631Z,3.00
2023-01-06T17:51:38.931Z,2.90
2023-01-06T17:53:59.146Z,2.70
2023-01-06T17:56:06.436Z,2.80
2023-01-06T17:58:15.082Z,2.80
2023-01-06T18:00:24.542Z,2.70
2023-01-06T18:02:43.167Z,2.83
2023-01-06T18:04:46.806Z,2.67
2023-01-06T18:06:52.981Z,2.90
2023-01-06T18:09:20.138Z,3.20
2023-01-06T18:11:33.544Z,2.87
2023-01-06T18:13:40.160Z,3.40
2023-01-06T18:15:42.826Z,3.00
2023-01-06T18:17:45.538Z,3.60
2023-01-06T18:19:47.450Z,3.00
2023-01-06T18:21:49.864Z,3.40
2023-01-06T18:23:52.930Z,2.97
2023-01-06T18:26:01.967Z,3.30
2023-01-06T18:28:15.702Z,3.63
2023-01-06T18:30:27.825Z,3.20
2023-01-06T18:32:32.400Z,3.17
2023-01-06T18:34:43.746Z,3.60
2023-01-06T18:36:49.818Z,3.20
2023-01-06T18:38:53.623Z,3.47
2023-01-06T18:40:55.435Z,3.40
2023-01-06T18:42:57.489Z,3.73
2023-01-06T18:45:16.822Z,4.07
2023-01-06T18:47:21.731Z,3.90
2023-01-06T18:49:27.008Z,3.80
2023-01-06T18:51:29.097Z,4.10
2023-01-06T18:53:43.213Z,4.20
2023-01-06T18:55:54.963Z,3.63
2023-01-06T18:58:36.704Z,4.20
2023-01-06T19:00:46.494Z,4.20
2023-01-06T19:02:54.570Z,3.90
2023-01-06T19:04:56.415Z,4.27
2023-01-06T19:07:18.283Z,3.57
2023-01-06T19:09:38.031Z,3.47
2023-01-06T19:11:39.828Z,3.40
2023-01-06T19:13:42.427Z,3.93
2023-01-06T19:15:44.258Z,3.43
2023-01-06T19:17:47.400Z,3.43
2023-01-06T19:19:51.968Z,3.50
2023-01-06T19:22:01.520Z,3.43
2023-01-06T19:24:28.022Z,3.70
2023-01-06T19:26:38.473Z,3.70
2023-01-06T19:28:40.374Z,3.27
2023-01-06T19:30:52.119Z,3.60
2023-01-06T19:32:53.926Z,3.77
2023-01-06T19:34:56.709Z,4.27
2023-01-06T19:36:59.296Z,3.90
2023-01-06T19:39:07.291Z,3.53
2023-01-06T19:41:25.191Z,4.00
2023-01-06T19:43:31.434Z,4.30
2023-01-06T19:45:35.078Z,3.83
2023-01-06T19:47:42.310Z,4.27
2023-01-06T19:49:49.619Z,4.20
2023-01-06T19:51:54.574Z,4.17
2023-01-06T19:54:02.019Z,4.20
2023-01-06T19:56:17.539Z,4.43
2023-01-06T19:58:33.454Z,4.30
2023-01-06T20:00:49.938Z,4.40
2023-01-06T20:02:56.615Z,4.50
2023-01-06T20:04:58.632Z,4.00
2023-01-06T20:07:05.536Z,4.30
2023-01-06T20:09:07.441Z,4.10
2023-01-06T20:11:10.949Z,3.87
2023-01-06T20:13:12.777Z,4.47
2023-01-06T20:15:15.036Z,4.63
2023-01-06T20:17:17.626Z,4.37
2023-01-06T20:19:21.634Z,4.40
2023-01-06T20:21:24.103Z,4.00
2023-01-06T20:23:25.981Z,4.30
2023-01-06T20:25:27.795Z,4.70
2023-01-06T20:27:29.853Z,4.00
2023-01-06T20:29:31.753Z,4.97
2023-01-06T20:31:33.891Z,4.30
2023-01-06T20:33:36.128Z,5.43
2023-01-06T20:35:38.391Z,4.50
2023-01-06T20:37:40.317Z,4.20
2023-01-06T20:39:42.279Z,4.33
2023-01-06T20:41:44.306Z,4.40
2023-01-06T20:43:47.243Z,6.00
2023-01-06T20:45:50.784Z,5.13
2023-01-06T20:47:52.669Z,5.40
2023-01-06T20:49:54.739Z,4.40
2023-01-06T20:51:56.524Z,4.70
2023-01-06T20:53:58.269Z,4.23
2023-01-06T20:56:00.606Z,4.13
2023-01-06T20:58:03.098Z,4.33
2023-01-06T21:00:08.020Z,4.20
2023-01-06T21:02:10.007Z,4.40
2023-01-06T21:04:13.008Z,4.90
2023-01-06T21:06:14.773Z,5.03
2023-01-06T21:08:16.531Z,4.87
2023-01-06T21:10:18.491Z,5.00
2023-01-06T21:12:20.407Z,4.80
2023-01-06T21:14:24.052Z,5.67
2023-01-06T21:16:26.006Z,4.70
2023-01-06T21:18:27.896Z,5.20
2023-01-06T21:20:30.484Z,4.90
2023-01-06T21:22:32.658Z,5.10
2023-01-06T21:24:34.612Z,4.90
2023-01-06T21:26:36.452Z,5.50
2023-01-06T21:28:38.267Z,4.97
2023-01-06T21:30:40.153Z,5.37
2023-01-06T21:32:42.027Z,6.03
2023-01-06T21:34:44.260Z,5.70
2023-01-06T21:36:46.190Z,5.60
2023-01-06T21:38:47.987Z,4.87
2023-01-06T21:40:50.636Z,4.90
2023-01-06T21:43:11.085Z,4.83
2023-01-06T21:45:12.972Z,5.13
2023-01-06T21:47:15.152Z,4.63
2023-01-06T21:49:16.971Z,4.83
2023-01-06T21:51:20.357Z,5.20
2023-01-06T21:53:22.788Z,4.97
2023-01-06T21:55:25.178Z,4.67
2023-01-06T21:57:28.210Z,4.77
2023-01-06T21:59:32.190Z,5.17
2023-01-06T22:01:35.468Z,5.10
2023-01-06T22:03:37.471Z,4.97
2023-01-06T22:05:39.321Z,4.50
2023-01-06T22:07:44.486Z,4.47
2023-01-06T22:09:46.255Z,4.73
2023-01-06T22:11:48.770Z,4.50
2023-01-06T22:13:51.794Z,4.27
2023-01-06T22:15:54.038Z,4.87
2023-01-06T22:17:58.918Z,4.47
2023-01-06T22:20:02.287Z,5.23
2023-01-06T22:22:06.253Z,4.50
2023-01-06T22:24:11.190Z,4.27
2023-01-06T22:26:13.934Z,4.20
2023-01-06T22:28:15.666Z,4.30
2023-01-06T22:30:17.571Z,4.87
2023-01-06T22:32:20.663Z,4.53
2023-01-06T22:34:22.653Z,4.47
2023-01-06T22:36:24.519Z,4.33
2023-01-06T22:38:26.796Z,4.23
2023-01-06T22:40:30.138Z,4.07
2023-01-06T22:42:32.311Z,5.20
2023-01-06T22:44:35.816Z,4.03
2023-01-06T22:46:38.044Z,4.57
2023-01-06T22:48:39.874Z,4.10
2023-01-06T22:50:41.749Z,3.80
2023-01-06T22:52:43.925Z,4.30
2023-01-06T22:54:45.743Z,4.37
2023-01-06T22:56:49.543Z,3.87
2023-01-06T22:58:52.222Z,3.60
2023-01-06T23:00:54.572Z,3.93
2023-01-06T23:02:57.734Z,4.23
2023-01-06T23:04:59.719Z,3.40
2023-01-06T23:07:02.144Z,4.43
2023-01-06T23:09:04.066Z,3.40
2023-01-06T23:11:19.214Z,3.50
2023-01-06T23:13:27.689Z,3.67
2023-01-06T23:15:30.938Z,4.00
2023-01-06T23:17:33.198Z,3.80
2023-01-06T23:19:35.006Z,3.47
2023-01-06T23:21:36.940Z,3.40
2023-01-06T23:23:40.889Z,3.90
2023-01-06T23:25:42.776Z,3.80
2023-01-06T23:27:44.583Z,4.00
2023-01-06T23:29:46.546Z,3.40
2023-01-06T23:31:48.376Z,3.40
2023-01-06T23:33:55.887Z,3.63
2023-01-06T23:36:01.874Z,3.13
2023-01-06T23:38:06.318Z,3.40
2023-01-06T23:40:08.763Z,3.40
2023-01-06T23:42:10.586Z,3.60
2023-01-06T23:44:15.905Z,3.30
2023-01-06T23:46:23.252Z,3.40
2023-01-06T23:48:25.567Z,3.53
2023-01-06T23:50:27.389Z,3.43
2023-01-06T23:52:29.409Z,3.40
2023-01-06T23:54:31.377Z,3.57
2023-01-06T23:56:35.604Z,3.43
2023-01-06T23:58:39.108Z,3.33
